sensor_id;sensor_type;location;lat;lon;timestamp;P1;durP1;ratioP1;P2;durP2;ratioP2
33367;SDS011;19724;51.114;13.906;2022-10-31T13:46:45;11.88;;;5.50;;
33367;SDS011;19724;51.114;13.906;2022-10-31T13:54:38;15.27;;;6.13;;
33367;SDS011;19724;51.114;13.906;2022-10-31T14:02:56;13.82;;;5.93;;
33367;SDS011;19724;51.114;13.906;2022-10-31T14:05:26;17.08;;;6.15;;
33367;SDS011;19724;51.114;13.906;2022-10-31T14:08:15;16.42;;;6.20;;
33367;SDS011;19724;51.114;13.906;2022-10-31T14:14:33;12.90;;;5.45;;
33367;SDS011;19724;51.114;13.906;2022-10-31T14:23:49;19.33;;;11.13;;
33367;SDS011;19724;51.114;13.906;2022-10-31T14:29:35;13.45;;;8.52;;
33367;SDS011;19724;51.114;13.906;2022-10-31T14:31:43;19.08;;;7.25;;
33367;SDS011;19724;51.114;13.906;2022-10-31T14:42:29;11.32;;;6.45;;
33367;SDS011;19724;51.114;13.906;2022-10-31T14:45:11;15.80;;;8.48;;
33367;SDS011;19724;51.114;13.906;2022-10-31T14:50:47;16.23;;;7.25;;
33367;SDS011;19724;51.114;13.906;2022-10-31T14:55:59;10.52;;;6.50;;
33367;SDS011;19724;51.114;13.906;2022-10-31T14:58:31;16.55;;;6.70;;
33367;SDS011;19724;51.114;13.906;2022-10-31T15:01:06;13.05;;;6.38;;
33367;SDS011;19724;51.114;13.906;2022-10-31T15:03:35;16.95;;;6.55;;
33367;SDS011;19724;51.114;13.906;2022-10-31T15:06:05;14.07;;;6.22;;
33367;SDS011;19724;51.114;13.906;2022-10-31T15:08:43;14.27;;;5.53;;
33367;SDS011;19724;51.114;13.906;2022-10-31T15:11:14;13.82;;;6.38;;
33367;SDS011;19724;51.114;13.906;2022-10-31T15:13:47;18.58;;;5.95;;
33367;SDS011;19724;51.114;13.906;2022-10-31T15:16:15;13.00;;;6.10;;
33367;SDS011;19724;51.114;13.906;2022-10-31T15:19:03;12.98;;;6.72;;
33367;SDS011;19724;51.114;13.906;2022-10-31T15:21:30;18.77;;;5.60;;
33367;SDS011;19724;51.114;13.906;2022-10-31T15:23:58;12.82;;;6.80;;
33367;SDS011;19724;51.114;13.906;2022-10-31T15:26:26;17.85;;;7.07;;
33367;SDS011;19724;51.114;13.906;2022-10-31T15:29:25;16.63;;;6.82;;
33367;SDS011;19724;51.114;13.906;2022-10-31T15:31:51;18.33;;;8.52;;
33367;SDS011;19724;51.114;13.906;2022-10-31T15:34:37;17.38;;;6.85;;
33367;SDS011;19724;51.114;13.906;2022-10-31T15:37:12;15.77;;;7.20;;
33367;SDS011;19724;51.114;13.906;2022-10-31T15:39:39;21.00;;;7.22;;
33367;SDS011;19724;51.114;13.906;2022-10-31T15:42:13;13.18;;;7.63;;
33367;SDS011;19724;51.114;13.906;2022-10-31T15:47:35;16.70;;;7.07;;
33367;SDS011;19724;51.114;13.906;2022-10-31T15:50:02;10.45;;;6.78;;
33367;SDS011;19724;51.114;13.906;2022-10-31T15:52:40;14.00;;;7.80;;
33367;SDS011;19724;51.114;13.906;2022-10-31T15:57:39;18.65;;;7.32;;
33367;SDS011;19724;51.114;13.906;2022-10-31T16:05:43;21.45;;;7.82;;
33367;SDS011;19724;51.114;13.906;2022-10-31T16:08:23;15.20;;;7.55;;
33367;SDS011;19724;51.114;13.906;2022-10-31T16:10:49;14.05;;;8.02;;
33367;SDS011;19724;51.114;13.906;2022-10-31T16:13:15;12.48;;;7.47;;
33367;SDS011;19724;51.114;13.906;2022-10-31T16:15:51;17.15;;;7.40;;
33367;SDS011;19724;51.114;13.906;2022-10-31T16:18:20;16.90;;;8.43;;
33367;SDS011;19724;51.114;13.906;2022-10-31T16:20:50;14.00;;;8.02;;
33367;SDS011;19724;51.114;13.906;2022-10-31T16:23:18;13.75;;;6.82;;
33367;SDS011;19724;51.114;13.906;2022-10-31T16:25:46;12.75;;;7.30;;
33367;SDS011;19724;51.114;13.906;2022-10-31T16:28:26;21.50;;;9.75;;
33367;SDS011;19724;51.114;13.906;2022-10-31T16:30:55;13.77;;;8.50;;
33367;SDS011;19724;51.114;13.906;2022-10-31T16:33:26;20.90;;;8.13;;
33367;SDS011;19724;51.114;13.906;2022-10-31T16:35:54;19.38;;;8.13;;
33367;SDS011;19724;51.114;13.906;2022-10-31T16:38:20;19.67;;;9.27;;
33367;SDS011;19724;51.114;13.906;2022-10-31T16:40:46;21.20;;;9.57;;
33367;SDS011;19724;51.114;13.906;2022-10-31T16:43:12;16.92;;;8.73;;
33367;SDS011;19724;51.114;13.906;2022-10-31T16:45:44;21.10;;;10.40;;
33367;SDS011;19724;51.114;13.906;2022-10-31T16:48:15;19.45;;;9.20;;
33367;SDS011;19724;51.114;13.906;2022-10-31T16:50:44;18.45;;;9.40;;
33367;SDS011;19724;51.114;13.906;2022-10-31T16:53:11;20.70;;;9.27;;
33367;SDS011;19724;51.114;13.906;2022-10-31T16:55:44;22.17;;;8.90;;
33367;SDS011;19724;51.114;13.906;2022-10-31T16:58:20;22.55;;;10.05;;
33367;SDS011;19724;51.114;13.906;2022-10-31T17:00:49;22.08;;;9.20;;
33367;SDS011;19724;51.114;13.906;2022-10-31T17:03:15;19.98;;;9.93;;
33367;SDS011;19724;51.114;13.906;2022-10-31T17:05:41;19.20;;;9.35;;
33367;SDS011;19724;51.114;13.906;2022-10-31T17:08:06;18.33;;;9.88;;
33367;SDS011;19724;51.114;13.906;2022-10-31T17:10:32;21.08;;;10.82;;
33367;SDS011;19724;51.114;13.906;2022-10-31T17:12:58;21.25;;;11.52;;
33367;SDS011;19724;51.114;13.906;2022-10-31T17:15:27;21.30;;;10.60;;
33367;SDS011;19724;51.114;13.906;2022-10-31T17:17:55;19.63;;;11.38;;
33367;SDS011;19724;51.114;13.906;2022-10-31T17:20:22;20.10;;;10.25;;
33367;SDS011;19724;51.114;13.906;2022-10-31T17:22:52;19.27;;;10.32;;
33367;SDS011;19724;51.114;13.906;2022-10-31T17:25:19;21.15;;;10.40;;
33367;SDS011;19724;51.114;13.906;2022-10-31T17:27:50;23.90;;;10.57;;
33367;SDS011;19724;51.114;13.906;2022-10-31T17:30:16;20.92;;;11.13;;
33367;SDS011;19724;51.114;13.906;2022-10-31T17:32:43;19.85;;;10.20;;
33367;SDS011;19724;51.114;13.906;2022-10-31T17:35:11;18.63;;;10.70;;
33367;SDS011;19724;51.114;13.906;2022-10-31T17:37:38;21.17;;;10.40;;
33367;SDS011;19724;51.114;13.906;2022-10-31T17:40:05;19.08;;;9.90;;
33367;SDS011;19724;51.114;13.906;2022-10-31T17:42:31;20.80;;;10.90;;
33367;SDS011;19724;51.114;13.906;2022-10-31T17:44:57;18.58;;;10.30;;
33367;SDS011;19724;51.114;13.906;2022-10-31T17:47:22;21.90;;;11.13;;
33367;SDS011;19724;51.114;13.906;2022-10-31T17:49:48;18.35;;;11.35;;
33367;SDS011;19724;51.114;13.906;2022-10-31T17:52:13;21.73;;;12.35;;
33367;SDS011;19724;51.114;13.906;2022-10-31T17:54:39;19.00;;;11.63;;
33367;SDS011;19724;51.114;13.906;2022-10-31T17:57:05;19.95;;;10.98;;
33367;SDS011;19724;51.114;13.906;2022-10-31T17:59:30;22.00;;;12.02;;
33367;SDS011;19724;51.114;13.906;2022-10-31T18:01:56;24.58;;;12.30;;
33367;SDS011;19724;51.114;13.906;2022-10-31T18:04:24;25.13;;;14.15;;
33367;SDS011;19724;51.114;13.906;2022-10-31T18:06:50;26.42;;;15.15;;
33367;SDS011;19724;51.114;13.906;2022-10-31T18:09:16;26.15;;;14.82;;
33367;SDS011;19724;51.114;13.906;2022-10-31T18:11:41;25.50;;;13.68;;
33367;SDS011;19724;51.114;13.906;2022-10-31T18:14:07;23.35;;;13.43;;
33367;SDS011;19724;51.114;13.906;2022-10-31T18:16:34;28.48;;;14.55;;
33367;SDS011;19724;51.114;13.906;2022-10-31T18:19:00;23.75;;;15.20;;
33367;SDS011;19724;51.114;13.906;2022-10-31T18:21:26;22.75;;;13.73;;
33367;SDS011;19724;51.114;13.906;2022-10-31T18:23:53;24.95;;;15.98;;
33367;SDS011;19724;51.114;13.906;2022-10-31T18:26:20;26.45;;;15.07;;
33367;SDS011;19724;51.114;13.906;2022-10-31T18:28:47;22.48;;;14.85;;
33367;SDS011;19724;51.114;13.906;2022-10-31T18:31:13;25.02;;;14.88;;
33367;SDS011;19724;51.114;13.906;2022-10-31T18:33:38;26.25;;;15.38;;
33367;SDS011;19724;51.114;13.906;2022-10-31T18:36:06;23.70;;;12.32;;
33367;SDS011;19724;51.114;13.906;2022-10-31T18:38:33;21.02;;;12.85;;
33367;SDS011;19724;51.114;13.906;2022-10-31T18:41:01;23.23;;;14.18;;
33367;SDS011;19724;51.114;13.906;2022-10-31T18:43:27;26.55;;;13.98;;
33367;SDS011;19724;51.114;13.906;2022-10-31T18:45:52;20.33;;;13.80;;
33367;SDS011;19724;51.114;13.906;2022-10-31T18:48:18;24.15;;;15.68;;
33367;SDS011;19724;51.114;13.906;2022-10-31T18:54:10;24.23;;;14.70;;
33367;SDS011;19724;51.114;13.906;2022-10-31T18:56:36;21.65;;;15.43;;
33367;SDS011;19724;51.114;13.906;2022-10-31T18:59:01;27.92;;;17.77;;
33367;SDS011;19724;51.114;13.906;2022-10-31T19:01:27;22.35;;;16.05;;
33367;SDS011;19724;51.114;13.906;2022-10-31T19:03:54;23.48;;;15.90;;
33367;SDS011;19724;51.114;13.906;2022-10-31T19:06:22;25.00;;;15.63;;
33367;SDS011;19724;51.114;13.906;2022-10-31T19:08:48;34.17;;;16.73;;
33367;SDS011;19724;51.114;13.906;2022-10-31T19:11:20;34.45;;;14.82;;
33367;SDS011;19724;51.114;13.906;2022-10-31T19:13:45;23.27;;;15.55;;
33367;SDS011;19724;51.114;13.906;2022-10-31T19:16:12;22.83;;;14.70;;
33367;SDS011;19724;51.114;13.906;2022-10-31T19:18:39;21.90;;;15.18;;
33367;SDS011;19724;51.114;13.906;2022-10-31T19:21:07;21.10;;;15.35;;
33367;SDS011;19724;51.114;13.906;2022-10-31T19:23:37;26.80;;;14.82;;
33367;SDS011;19724;51.114;13.906;2022-10-31T19:26:03;25.23;;;16.17;;
33367;SDS011;19724;51.114;13.906;2022-10-31T19:28:30;20.45;;;14.48;;
33367;SDS011;19724;51.114;13.906;2022-10-31T19:30:56;23.60;;;16.55;;
33367;SDS011;19724;51.114;13.906;2022-10-31T19:33:22;27.48;;;17.75;;
33367;SDS011;19724;51.114;13.906;2022-10-31T19:36:07;23.95;;;16.02;;
33367;SDS011;19724;51.114;13.906;2022-10-31T19:38:41;21.40;;;14.65;;
33367;SDS011;19724;51.114;13.906;2022-10-31T19:41:11;25.08;;;16.88;;
33367;SDS011;19724;51.114;13.906;2022-10-31T19:43:44;22.70;;;15.15;;
33367;SDS011;19724;51.114;13.906;2022-10-31T19:46:11;24.85;;;16.23;;
33367;SDS011;19724;51.114;13.906;2022-10-31T19:48:39;24.17;;;16.30;;
33367;SDS011;19724;51.114;13.906;2022-10-31T19:51:06;20.70;;;14.15;;
33367;SDS011;19724;51.114;13.906;2022-10-31T19:53:36;27.65;;;15.63;;
33367;SDS011;19724;51.114;13.906;2022-10-31T19:56:03;22.67;;;16.27;;
33367;SDS011;19724;51.114;13.906;2022-10-31T19:58:34;24.10;;;14.57;;
33367;SDS011;19724;51.114;13.906;2022-10-31T20:01:04;26.80;;;14.98;;
33367;SDS011;19724;51.114;13.906;2022-10-31T20:03:35;21.67;;;15.27;;
33367;SDS011;19724;51.114;13.906;2022-10-31T20:06:05;24.33;;;15.05;;
33367;SDS011;19724;51.114;13.906;2022-10-31T20:08:33;24.75;;;13.93;;
33367;SDS011;19724;51.114;13.906;2022-10-31T20:18:01;29.42;;;18.13;;
33367;SDS011;19724;51.114;13.906;2022-10-31T20:20:27;33.60;;;23.88;;
33367;SDS011;19724;51.114;13.906;2022-10-31T20:22:53;37.90;;;25.15;;
33367;SDS011;19724;51.114;13.906;2022-10-31T20:25:18;38.13;;;23.05;;
33367;SDS011;19724;51.114;13.906;2022-10-31T20:27:44;33.63;;;20.95;;
33367;SDS011;19724;51.114;13.906;2022-10-31T20:30:09;31.52;;;20.73;;
33367;SDS011;19724;51.114;13.906;2022-10-31T20:32:35;30.45;;;18.27;;
33367;SDS011;19724;51.114;13.906;2022-10-31T20:35:01;30.75;;;20.20;;
33367;SDS011;19724;51.114;13.906;2022-10-31T20:37:26;28.92;;;19.92;;
33367;SDS011;19724;51.114;13.906;2022-10-31T20:39:52;30.23;;;19.33;;
33367;SDS011;19724;51.114;13.906;2022-10-31T20:42:17;31.35;;;19.77;;
33367;SDS011;19724;51.114;13.906;2022-10-31T20:44:43;22.73;;;18.52;;
33367;SDS011;19724;51.114;13.906;2022-10-31T20:47:09;26.77;;;20.30;;
33367;SDS011;19724;51.114;13.906;2022-10-31T20:49:35;25.58;;;18.00;;
33367;SDS011;19724;51.114;13.906;2022-10-31T20:52:01;28.20;;;17.45;;
33367;SDS011;19724;51.114;13.906;2022-10-31T20:54:26;25.20;;;17.38;;
33367;SDS011;19724;51.114;13.906;2022-10-31T20:56:52;31.63;;;18.45;;
33367;SDS011;19724;51.114;13.906;2022-10-31T20:59:18;28.17;;;17.63;;
33367;SDS011;19724;51.114;13.906;2022-10-31T21:01:43;26.27;;;17.90;;
33367;SDS011;19724;51.114;13.906;2022-10-31T21:04:09;29.25;;;17.77;;
33367;SDS011;19724;51.114;13.906;2022-10-31T21:06:36;28.55;;;18.92;;
33367;SDS011;19724;51.114;13.906;2022-10-31T21:09:02;26.05;;;17.45;;
33367;SDS011;19724;51.114;13.906;2022-10-31T21:11:29;24.58;;;16.48;;
33367;SDS011;19724;51.114;13.906;2022-10-31T21:13:54;36.13;;;18.27;;
33367;SDS011;19724;51.114;13.906;2022-10-31T21:16:23;26.38;;;18.50;;
33367;SDS011;19724;51.114;13.906;2022-10-31T21:18:53;24.08;;;16.83;;
33367;SDS011;19724;51.114;13.906;2022-10-31T21:21:19;28.65;;;17.83;;
33367;SDS011;19724;51.114;13.906;2022-10-31T21:23:53;26.88;;;19.35;;
33367;SDS011;19724;51.114;13.906;2022-10-31T21:26:21;30.02;;;16.77;;
33367;SDS011;19724;51.114;13.906;2022-10-31T21:28:48;25.00;;;17.05;;
33367;SDS011;19724;51.114;13.906;2022-10-31T21:31:16;22.95;;;16.15;;
33367;SDS011;19724;51.114;13.906;2022-10-31T21:33:42;27.05;;;19.10;;
33367;SDS011;19724;51.114;13.906;2022-10-31T21:36:09;27.60;;;17.65;;
33367;SDS011;19724;51.114;13.906;2022-10-31T21:38:35;29.75;;;17.05;;
33367;SDS011;19724;51.114;13.906;2022-10-31T21:41:02;34.92;;;18.00;;
33367;SDS011;19724;51.114;13.906;2022-10-31T21:43:29;26.40;;;17.08;;
33367;SDS011;19724;51.114;13.906;2022-10-31T21:45:55;22.30;;;15.95;;
33367;SDS011;19724;51.114;13.906;2022-10-31T21:48:27;26.90;;;16.52;;
33367;SDS011;19724;51.114;13.906;2022-10-31T21:50:53;27.42;;;16.20;;
33367;SDS011;19724;51.114;13.906;2022-10-31T21:53:18;29.08;;;16.25;;
33367;SDS011;19724;51.114;13.906;2022-10-31T21:56:02;26.45;;;17.35;;
33367;SDS011;19724;51.114;13.906;2022-10-31T21:58:28;22.50;;;16.65;;
33367;SDS011;19724;51.114;13.906;2022-10-31T22:00:54;28.08;;;16.45;;
33367;SDS011;19724;51.114;13.906;2022-10-31T22:03:24;25.73;;;16.20;;
33367;SDS011;19724;51.114;13.906;2022-10-31T22:05:49;24.70;;;15.10;;
33367;SDS011;19724;51.114;13.906;2022-10-31T22:08:15;27.85;;;14.90;;
33367;SDS011;19724;51.114;13.906;2022-10-31T22:10:40;23.50;;;15.82;;
33367;SDS011;19724;51.114;13.906;2022-10-31T22:13:06;23.92;;;15.85;;
33367;SDS011;19724;51.114;13.906;2022-10-31T22:15:31;21.85;;;15.27;;
33367;SDS011;19724;51.114;13.906;2022-10-31T22:17:57;29.27;;;16.75;;
33367;SDS011;19724;51.114;13.906;2022-10-31T22:20:22;24.75;;;15.95;;
33367;SDS011;19724;51.114;13.906;2022-10-31T22:22:50;26.00;;;17.48;;
33367;SDS011;19724;51.114;13.906;2022-10-31T22:25:15;27.23;;;17.85;;
33367;SDS011;19724;51.114;13.906;2022-10-31T22:27:41;26.15;;;18.00;;
33367;SDS011;19724;51.114;13.906;2022-10-31T22:30:07;26.15;;;19.17;;
33367;SDS011;19724;51.114;13.906;2022-10-31T22:32:33;27.75;;;18.05;;
33367;SDS011;19724;51.114;13.906;2022-10-31T22:34:59;24.13;;;17.90;;
33367;SDS011;19724;51.114;13.906;2022-10-31T22:37:24;28.95;;;19.63;;
33367;SDS011;19724;51.114;13.906;2022-10-31T22:39:50;26.73;;;18.55;;
33367;SDS011;19724;51.114;13.906;2022-10-31T22:42:15;28.15;;;20.40;;
33367;SDS011;19724;51.114;13.906;2022-10-31T22:44:41;30.48;;;19.80;;
33367;SDS011;19724;51.114;13.906;2022-10-31T22:47:06;27.98;;;17.30;;
33367;SDS011;19724;51.114;13.906;2022-10-31T22:49:32;26.70;;;16.98;;
33367;SDS011;19724;51.114;13.906;2022-10-31T22:51:57;24.98;;;17.75;;
33367;SDS011;19724;51.114;13.906;2022-10-31T22:54:25;26.90;;;18.65;;
33367;SDS011;19724;51.114;13.906;2022-10-31T22:56:51;25.58;;;18.25;;
33367;SDS011;19724;51.114;13.906;2022-10-31T22:59:16;23.45;;;16.52;;
33367;SDS011;19724;51.114;13.906;2022-10-31T23:01:42;26.25;;;18.38;;
33367;SDS011;19724;51.114;13.906;2022-10-31T23:04:09;26.15;;;17.45;;
33367;SDS011;19724;51.114;13.906;2022-10-31T23:06:35;50.22;;;30.88;;
33367;SDS011;19724;51.114;13.906;2022-10-31T23:09:02;56.70;;;36.65;;
33367;SDS011;19724;51.114;13.906;2022-10-31T23:11:32;59.42;;;37.38;;
33367;SDS011;19724;51.114;13.906;2022-10-31T23:14:00;64.70;;;40.40;;
33367;SDS011;19724;51.114;13.906;2022-10-31T23:16:33;54.47;;;41.38;;
33367;SDS011;19724;51.114;13.906;2022-10-31T23:19:00;64.35;;;41.88;;
33367;SDS011;19724;51.114;13.906;2022-10-31T23:21:27;65.65;;;43.83;;
33367;SDS011;19724;51.114;13.906;2022-10-31T23:24:11;63.50;;;43.05;;
33367;SDS011;19724;51.114;13.906;2022-10-31T23:26:37;58.58;;;40.97;;
33367;SDS011;19724;51.114;13.906;2022-10-31T23:29:21;58.00;;;41.50;;
33367;SDS011;19724;51.114;13.906;2022-10-31T23:31:47;62.28;;;42.00;;
33367;SDS011;19724;51.114;13.906;2022-10-31T23:34:12;65.03;;;41.55;;
33367;SDS011;19724;51.114;13.906;2022-10-31T23:36:38;61.05;;;41.35;;
33367;SDS011;19724;51.114;13.906;2022-10-31T23:39:03;56.97;;;40.50;;
33367;SDS011;19724;51.114;13.906;2022-10-31T23:41:29;65.05;;;44.00;;
33367;SDS011;19724;51.114;13.906;2022-10-31T23:43:54;58.25;;;40.50;;
33367;SDS011;19724;51.114;13.906;2022-10-31T23:46:20;63.75;;;41.40;;
33367;SDS011;19724;51.114;13.906;2022-10-31T23:48:45;55.75;;;38.65;;
33367;SDS011;19724;51.114;13.906;2022-10-31T23:51:14;55.10;;;38.15;;
33367;SDS011;19724;51.114;13.906;2022-10-31T23:53:43;59.95;;;43.10;;
33367;SDS011;19724;51.114;13.906;2022-10-31T23:56:10;55.13;;;37.47;;
33367;SDS011;19724;51.114;13.906;2022-10-31T23:58:36;53.55;;;38.17;;
